Time;durP1;ratioP1;P1;durP2;ratioP2;P2;SDS_P1;SDS_P2;PMS_P1;PMS_P2;Temp;Humidity;BMP_temperature;BMP_pressure;BME280_temperature;BME280_humidity;BME280_pressure;Samples;Min_cycle;Max_cycle;Signal;HPM_P1;HPM_P2
2022/01/25 00:09:14;;;;;;;45.88;20.15;;;;;;;-6.50;90.28;102357.94;5590715;31;34741;-66
2022/01/25 00:29:12;;;;;;;43.17;21.50;;;;;;;-6.69;92.04;102357.22;5547709;31;34847;-67
2022/01/25 00:32:17;;;;;;;38.47;20.98;;;;;;;-6.69;92.32;102353.78;5590549;31;33965;-67
2022/01/25 00:35:20;;;;;;;47.70;23.10;;;;;;;-6.71;92.89;102351.19;5590563;31;34036;-67
2022/01/25 00:38:23;;;;;;;46.05;22.30;;;;;;;-6.69;93.23;102348.63;5590424;31;34271;-67
2022/01/25 00:41:27;;;;;;;42.88;21.12;;;;;;;-6.71;93.46;102345.19;5590490;31;34527;-67
2022/01/25 00:44:35;;;;;;;48.22;22.77;;;;;;;-6.69;93.79;102354.63;5590492;31;34620;-66
2022/01/25 00:47:40;;;;;;;52.28;23.33;;;;;;;-6.72;93.83;102339.16;5564340;31;34030;-68
2022/01/25 00:50:43;;;;;;;50.90;23.38;;;;;;;-6.72;94.28;102341.72;5590577;31;33992;-67
2022/01/25 00:57:00;;;;;;;42.10;21.37;;;;;;;-6.75;94.46;102338.31;5590821;31;34327;-66
2022/01/25 01:00:06;;;;;;;54.30;22.85;;;;;;;-6.77;94.90;102330.59;5576716;31;34637;-67
2022/01/25 01:03:09;;;;;;;44.33;20.48;;;;;;;-6.81;95.35;102330.63;5590233;31;34290;-67
2022/01/25 01:06:12;;;;;;;45.95;21.95;;;;;;;-6.86;95.93;102322.91;5590217;31;33953;-66
2022/01/25 01:09:18;;;;;;;43.17;21.73;;;;;;;-6.91;96.03;102319.50;5589780;31;34078;-66
2022/01/25 01:16:01;;;;;;;42.47;22.02;;;;;;;-6.93;95.93;102320.41;5590246;31;33951;-66
2022/01/25 01:29:30;;;;;;;53.50;25.75;;;;;;;-6.96;97.08;102302.34;5590274;31;34366;-67
2022/01/25 01:48:39;;;;;;;51.30;25.25;;;;;;;-7.13;98.93;102276.66;5589746;31;34588;-66
2022/01/25 01:51:44;;;;;;;47.75;24.87;;;;;;;-7.17;99.05;102270.69;5589899;31;33923;-67
2022/01/25 01:54:47;;;;;;;48.35;23.98;;;;;;;-7.18;98.86;102268.09;5576192;31;34774;-66
2022/01/25 01:57:49;;;;;;;48.47;24.85;;;;;;;-7.25;99.28;102269.00;5589816;31;34703;-67
2022/01/25 02:00:52;;;;;;;53.35;24.02;;;;;;;-7.27;99.54;102265.59;5590114;31;33980;-66
2022/01/25 02:03:57;;;;;;;49.25;24.37;;;;;;;-7.30;99.51;102263.00;5589813;31;34000;-67
2022/01/25 02:06:59;;;;;;;57.13;26.30;;;;;;;-7.35;99.62;102262.19;5589775;31;34676;-68
2022/01/25 02:10:05;;;;;;;60.70;26.42;;;;;;;-7.34;100.00;102259.59;5589702;31;34078;-66
2022/01/25 02:13:10;;;;;;;54.88;25.73;;;;;;;-7.33;100.00;102258.75;5589592;31;34209;-66
2022/01/25 02:22:57;;;;;;;53.63;24.63;;;;;;;-7.33;99.75;102248.44;5578169;31;34681;-66
2022/01/25 02:26:02;;;;;;;62.33;26.42;;;;;;;-7.41;99.98;102244.19;5589692;31;34389;-67
2022/01/25 02:29:05;;;;;;;65.78;28.25;;;;;;;-7.44;100.00;102239.03;5589769;31;34013;-66
2022/01/25 02:32:10;;;;;;;60.50;27.85;;;;;;;-7.45;100.00;102234.78;5589512;31;34018;-69
2022/01/25 02:35:15;;;;;;;69.28;29.33;;;;;;;-7.52;100.00;102232.22;5589443;31;34685;-66
2022/01/25 02:38:24;;;;;;;60.33;27.87;;;;;;;-7.40;100.00;102227.84;5589384;31;34561;-67
2022/01/25 02:41:33;;;;;;;63.28;28.08;;;;;;;-7.42;100.00;102230.44;5589439;31;33991;-67
2022/01/25 02:44:36;;;;;;;64.78;29.85;;;;;;;-7.49;100.00;102221.88;5575440;31;34618;-67
2022/01/25 02:51:01;;;;;;;68.32;28.00;;;;;;;-7.49;100.00;102216.72;5589341;31;34697;-67
2022/01/25 02:54:08;;;;;;;65.68;27.55;;;;;;;-7.54;100.00;102205.59;5589227;31;34658;-68
2022/01/25 02:57:10;;;;;;;70.82;31.73;;;;;;;-7.56;100.00;102211.62;5589604;31;34044;-66
2022/01/25 03:00:15;;;;;;;67.62;29.30;;;;;;;-7.58;100.00;102208.19;5589365;31;34686;-68
2022/01/25 03:03:18;;;;;;;64.75;31.50;;;;;;;-7.52;100.00;102208.16;5589248;31;33914;-68
2022/01/25 03:06:23;;;;;;;71.70;33.63;;;;;;;-7.37;100.00;102202.91;5589197;31;34592;-66
2022/01/25 03:09:26;;;;;;;68.82;31.98;;;;;;;-7.33;100.00;102198.59;5589196;31;34281;-67
2022/01/25 03:12:42;;;;;;;73.75;31.48;;;;;;;-7.34;100.00;102192.56;5589164;31;34860;-67
2022/01/25 03:18:56;;;;;;;80.35;33.15;;;;;;;-7.42;100.00;102191.78;5588918;31;34640;-67
2022/01/25 03:22:15;;;;;;;71.05;33.78;;;;;;;-7.35;100.00;102183.13;5588977;31;34650;-66
2022/01/25 03:25:18;;;;;;;66.60;30.15;;;;;;;-7.42;100.00;102186.63;5588967;31;34036;-67
2022/01/25 03:28:21;;;;;;;67.12;29.27;;;;;;;-7.46;100.00;102182.34;5575058;31;33949;-66
2022/01/25 03:31:24;;;;;;;70.68;33.22;;;;;;;-7.52;100.00;102185.81;5588453;31;33959;-66
2022/01/25 03:34:27;;;;;;;75.32;33.88;;;;;;;-7.58;100.00;102188.44;5575006;31;33913;-67
2022/01/25 03:37:30;;;;;;;64.65;31.40;;;;;;;-7.54;100.00;102187.53;5575039;31;34270;-67
2022/01/25 03:40:33;;;;;;;66.57;29.98;;;;;;;-7.55;100.00;102180.66;5588724;31;34341;-67
2022/01/25 03:43:37;;;;;;;69.20;30.17;;;;;;;-7.64;100.00;102174.72;5574932;31;33926;-67
2022/01/25 03:46:55;;;;;;;67.97;32.08;;;;;;;-7.70;100.00;102177.34;5574949;31;34495;-67
2022/01/25 03:49:58;;;;;;;71.85;30.12;;;;;;;-7.68;100.00;102168.75;5588831;31;33888;-67
2022/01/25 03:53:00;;;;;;;68.50;31.85;;;;;;;-7.68;100.00;102161.00;5588842;31;33898;-67
2022/01/25 03:56:04;;;;;;;80.57;33.90;;;;;;;-7.59;100.00;102155.78;5588409;31;34046;-66
2022/01/25 03:59:08;;;;;;;74.22;33.55;;;;;;;-7.54;100.00;102142.88;5574767;31;34048;-67
2022/01/25 04:02:12;;;;;;;79.00;33.63;;;;;;;-7.54;100.00;102146.31;5588401;31;34696;-67
2022/01/25 04:05:22;;;;;;;76.80;33.28;;;;;;;-7.39;100.00;102140.19;5574864;31;33960;-67
2022/01/25 04:08:25;;;;;;;77.65;35.65;;;;;;;-7.24;100.00;102141.78;5588161;31;34087;-67
2022/01/25 04:11:28;;;;;;;71.30;34.17;;;;;;;-7.06;100.00;102141.63;5588143;31;33895;-67
2022/01/25 04:14:31;;;;;;;71.53;33.38;;;;;;;-6.90;99.71;102130.31;5588408;31;33981;-68
2022/01/25 04:17:35;;;;;;;65.30;30.85;;;;;;;-6.81;99.40;102127.63;5588179;31;34175;-67
2022/01/25 04:20:38;;;;;;;64.95;30.60;;;;;;;-6.69;98.86;102126.66;5574190;31;34646;-67
2022/01/25 04:27:02;;;;;;;62.83;27.92;;;;;;;-6.46;97.46;102106.59;5587798;31;33994;-68
2022/01/25 04:30:06;;;;;;;60.80;27.45;;;;;;;-6.31;96.68;102110.72;5587706;31;34653;-67
2022/01/25 04:33:23;;;;;;;58.95;27.00;;;;;;;-6.19;95.22;102092.47;5587855;31;34720;-66
2022/01/25 04:49:53;;;;;;;51.28;21.92;;;;;;;-5.56;92.72;102088.06;5590346;31;34822;-67
2022/01/25 04:53:15;;;;;;;52.95;23.15;;;;;;;-5.51;92.36;102081.09;5576673;31;34780;-67
2022/01/25 04:56:33;;;;;;;52.30;22.15;;;;;;;-5.46;91.32;102075.84;5576959;31;34356;-68
2022/01/25 05:00:22;;;;;;;56.47;24.60;;;;;;;-5.41;91.72;102074.91;5590674;31;33985;-67
2022/01/25 05:03:15;;;;;;;58.33;24.20;;;;;;;-5.34;90.93;102076.53;5580230;31;33974;-67
2022/01/25 05:06:18;;;;;;;53.58;23.10;;;;;;;-5.42;90.54;102068.03;5590377;31;34270;-67
2022/01/25 05:09:21;;;;;;;54.90;21.92;;;;;;;-5.30;91.10;102060.06;5590343;31;33939;-67
2022/01/25 05:13:12;;;;;;;54.20;22.62;;;;;;;-5.22;90.55;102047.00;5590227;31;34317;-67
2022/01/25 05:16:27;;;;;;;51.70;22.02;;;;;;;-5.21;90.28;102043.53;5590243;31;34275;-68
2022/01/25 05:22:51;;;;;;;53.75;22.37;;;;;;;-5.17;89.65;102045.16;5590006;31;34136;-67
2022/01/25 05:25:53;;;;;;;55.90;22.17;;;;;;;-5.15;90.97;102038.25;5590176;31;33835;-68
2022/01/25 05:28:57;;;;;;;51.90;21.95;;;;;;;-5.03;90.46;102043.19;5589570;31;34006;-68
2022/01/25 05:32:00;;;;;;;56.65;24.08;;;;;;;-4.87;90.12;102035.97;5575443;31;34010;-67
2022/01/25 05:35:04;;;;;;;54.05;22.55;;;;;;;-4.88;90.36;102042.03;5590591;31;34574;-67
2022/01/25 05:38:07;;;;;;;53.17;20.95;;;;;;;-4.93;90.37;102039.53;5593200;31;34063;-67
2022/01/25 05:41:10;;;;;;;51.28;21.48;;;;;;;-4.88;90.34;102044.63;5590029;31;33992;-67
2022/01/25 05:44:24;;;;;;;52.80;21.40;;;;;;;-4.87;90.24;102036.84;5589969;31;35341;-68
2022/01/25 05:47:32;;;;;;;60.25;20.10;;;;;;;-4.85;89.56;102024.75;5589995;31;33948;-67
2022/01/25 05:50:35;;;;;;;45.35;17.62;;;;;;;-4.86;90.17;102022.16;5589867;31;33943;-67
2022/01/25 05:53:40;;;;;;;45.05;17.95;;;;;;;-4.86;90.34;102022.16;5591124;31;34618;-68
2022/01/25 05:56:42;;;;;;;44.00;18.80;;;;;;;-4.76;89.38;102028.00;5589680;31;34052;-68
2022/01/25 05:59:45;;;;;;;42.80;17.95;;;;;;;-4.66;89.45;102025.22;5589601;31;34715;-68
2022/01/25 06:02:53;;;;;;;34.10;14.85;;;;;;;-4.65;88.99;102029.53;5589572;31;34284;-67
2022/01/25 06:05:56;;;;;;;39.97;16.23;;;;;;;-4.61;87.82;102030.31;5589502;31;33917;-67
2022/01/25 06:08:59;;;;;;;35.42;16.12;;;;;;;-4.56;87.78;102039.69;5589574;31;34381;-67
2022/01/25 06:12:02;;;;;;;43.15;16.45;;;;;;;-4.42;87.95;102040.25;5589316;31;34188;-67
2022/01/25 06:15:06;;;;;;;30.35;14.77;;;;;;;-4.49;87.52;102041.25;5589541;31;34040;-67
2022/01/25 06:18:08;;;;;;;30.27;15.23;;;;;;;-4.44;87.36;102049.78;5589715;31;33981;-67
2022/01/25 06:21:11;;;;;;;40.67;14.38;;;;;;;-4.46;86.88;102024.81;5589372;31;34110;-68
2022/01/25 06:24:14;;;;;;;34.80;15.30;;;;;;;-4.46;87.36;102015.31;5590370;31;34590;-67
2022/01/25 06:27:17;;;;;;;38.83;16.35;;;;;;;-4.39;87.06;102023.78;5575575;31;33966;-68
2022/01/25 06:30:20;;;;;;;36.72;16.27;;;;;;;-4.41;86.73;102013.47;5589243;31;34635;-68
2022/01/25 06:33:23;;;;;;;42.33;15.93;;;;;;;-4.34;87.54;102011.56;5589184;31;34626;-68
2022/01/25 06:36:26;;;;;;;41.72;15.85;;;;;;;-4.35;87.00;102009.87;5589262;31;34626;-68
2022/01/25 06:39:29;;;;;;;37.90;16.37;;;;;;;-4.34;86.60;102011.56;5589324;31;34656;-68
2022/01/25 06:42:32;;;;;;;43.58;16.37;;;;;;;-4.35;87.19;102006.41;5589229;31;34050;-68
2022/01/25 06:45:39;;;;;;;38.53;16.05;;;;;;;-4.25;86.78;102019.13;5589299;31;34347;-67
2022/01/25 06:48:45;;;;;;;39.35;17.20;;;;;;;-4.10;86.56;102002.41;5589220;31;34614;-68
2022/01/25 06:51:49;;;;;;;44.05;16.90;;;;;;;-4.05;86.47;102016.97;5589003;31;34632;-66
2022/01/25 06:54:53;;;;;;;43.60;17.35;;;;;;;-4.19;86.39;102011.25;5588927;31;34538;-67
2022/01/25 06:57:55;;;;;;;40.60;17.48;;;;;;;-4.13;86.41;102005.06;5588784;31;34002;-68
2022/01/25 07:00:58;;;;;;;37.53;16.55;;;;;;;-4.17;86.40;102004.28;5589206;31;34394;-67
2022/01/25 07:04:02;;;;;;;39.25;16.92;;;;;;;-4.03;86.05;102006.56;5588559;31;34074;-68
2022/01/25 07:07:04;;;;;;;40.72;16.67;;;;;;;-4.09;86.35;102007.56;5587921;31;35300;-67
2022/01/25 07:10:09;;;;;;;40.70;17.50;;;;;;;-4.11;86.19;102003.28;5588793;31;33913;-68
2022/01/25 07:13:12;;;;;;;39.50;17.77;;;;;;;-4.02;85.93;102003.09;5587870;31;34286;-68
2022/01/25 07:16:15;;;;;;;44.00;17.60;;;;;;;-3.96;86.21;101998.59;5588559;31;34965;-68
2022/01/25 07:19:18;;;;;;;39.25;16.00;;;;;;;-3.98;85.82;102015.09;5588913;31;34070;-67
2022/01/25 07:22:21;;;;;;;42.88;17.45;;;;;;;-3.76;86.32;102011.09;5588668;31;34595;-68
2022/01/25 07:25:25;;;;;;;39.22;17.40;;;;;;;-3.95;85.55;102015.84;5587847;31;34118;-68
2022/01/25 07:28:29;;;;;;;40.22;17.55;;;;;;;-3.86;85.72;102013.94;5588417;31;34041;-68
2022/01/25 07:31:32;;;;;;;37.03;17.30;;;;;;;-3.68;85.29;101998.75;5588212;31;34540;-67
2022/01/25 07:34:44;;;;;;;43.30;17.67;;;;;;;-3.55;84.76;102004.53;5588302;31;33943;-68
2022/01/25 07:37:47;;;;;;;45.08;17.85;;;;;;;-3.43;84.43;102021.50;5588587;31;33869;-68
2022/01/25 07:40:50;;;;;;;49.65;18.92;;;;;;;-3.56;84.20;102015.78;5589107;31;33909;-66
2022/01/25 07:44:04;;;;;;;42.35;17.98;;;;;;;-3.63;84.12;102009.06;5588035;31;34449;-67
2022/01/25 07:47:11;;;;;;;43.75;18.55;;;;;;;-3.62;83.87;102005.53;5588471;31;33911;-68
2022/01/25 07:50:16;;;;;;;41.80;18.27;;;;;;;-3.71;84.89;102014.41;5588163;31;33919;-67
2022/01/25 07:53:19;;;;;;;36.92;18.00;;;;;;;-3.69;85.05;102009.19;5574219;31;34287;-68
2022/01/25 07:56:23;;;;;;;47.78;17.90;;;;;;;-3.58;84.73;102001.97;5587988;31;34510;-68
2022/01/25 07:59:27;;;;;;;48.80;18.12;;;;;;;-3.46;83.77;102006.87;5587799;31;34174;-68
2022/01/25 08:02:30;;;;;;;39.15;17.23;;;;;;;-3.46;84.05;102011.22;5588079;31;34145;-68
2022/01/25 08:05:35;;;;;;;46.97;17.33;;;;;;;-3.54;84.23;101995.84;5588326;31;33909;-67
2022/01/25 08:08:37;;;;;;;47.80;17.58;;;;;;;-3.35;84.38;102004.00;5588144;31;34029;-67
2022/01/25 08:11:43;;;;;;;42.65;17.33;;;;;;;-3.17;83.52;102000.94;5588088;31;35326;-68
2022/01/25 08:14:46;;;;;;;42.33;16.50;;;;;;;-2.83;83.65;102004.31;5574550;31;34360;-67
2022/01/25 08:17:56;;;;;;;46.67;17.60;;;;;;;-2.50;80.93;101989.47;5575801;31;34280;-67
2022/01/25 08:21:02;;;;;;;43.35;17.65;;;;;;;-2.60;80.59;101979.41;5590647;31;34001;-68
2022/01/25 08:24:14;;;;;;;50.97;18.02;;;;;;;-3.06;82.53;101985.91;5590765;31;33964;-68
2022/01/25 08:27:24;;;;;;;44.08;17.52;;;;;;;-2.62;81.18;101978.59;5590402;31;34794;-68
2022/01/25 08:30:41;;;;;;;55.65;19.67;;;;;;;-2.74;81.98;101978.06;5550398;32;33974;-68
2022/01/25 08:33:54;;;;;;;51.60;19.87;;;;;;;-2.40;80.63;101972.72;5571001;32;34011;-68
2022/01/25 08:37:02;;;;;;;44.20;17.98;;;;;;;-2.30;79.51;101978.47;5570964;32;34644;-68
2022/01/25 08:40:08;;;;;;;40.25;17.80;;;;;;;-2.02;79.11;101973.25;5570951;32;34676;-68
2022/01/25 08:43:14;;;;;;;45.97;18.87;;;;;;;-1.79;78.07;101966.41;5570872;32;34386;-67
2022/01/25 08:46:32;;;;;;;51.40;19.20;;;;;;;-2.26;79.50;101967.94;5557928;32;34597;-68
2022/01/25 08:49:43;;;;;;;57.42;19.85;;;;;;;-1.95;79.48;101972.19;5571209;32;33982;-68
2022/01/25 08:52:48;;;;;;;46.83;18.87;;;;;;;-1.85;77.38;101968.38;5570871;32;34051;-67
2022/01/25 08:56:06;;;;;;;39.83;18.33;;;;;;;-2.01;78.64;101964.56;5570809;32;34035;-67
2022/01/25 08:59:14;;;;;;;42.35;18.40;;;;;;;-1.95;78.17;101961.78;5570692;32;34177;-68
2022/01/25 09:02:17;;;;;;;51.65;18.92;;;;;;;-2.11;79.45;101966.63;5570553;32;34566;-67
2022/01/25 09:05:20;;;;;;;50.15;18.45;;;;;;;-2.16;80.14;101976.31;5570722;32;34012;-66
2022/01/25 09:08:26;;;;;;;51.47;18.48;;;;;;;-1.54;77.97;101966.44;5570250;32;33969;-66
2022/01/25 09:11:32;;;;;;;43.80;19.33;;;;;;;-1.06;75.62;101969.09;5570610;32;34723;-66
2022/01/25 09:14:34;;;;;;;45.25;18.10;;;;;;;-0.80;74.94;101962.09;5570788;32;34294;-66
2022/01/25 09:17:37;;;;;;;43.85;18.00;;;;;;;-0.79;74.86;101963.78;5556818;32;33977;-66
2022/01/25 09:20:40;;;;;;;43.63;18.33;;;;;;;-0.92;74.80;101976.44;5570619;32;33841;-65
2022/01/25 09:23:43;;;;;;;37.60;16.77;;;;;;;-1.17;76.55;101966.03;5570126;32;34339;-65
2022/01/25 09:26:45;;;;;;;42.42;17.85;;;;;;;-0.63;75.59;101957.94;5556844;32;34426;-66
2022/01/25 09:29:48;;;;;;;38.72;17.65;;;;;;;-0.63;73.81;101957.09;5577266;31;34140;-65
2022/01/25 09:32:51;;;;;;;36.30;17.58;;;;;;;-0.94;75.10;101958.25;5576294;31;33888;-66
2022/01/25 09:35:55;;;;;;;42.80;17.83;;;;;;;-0.89;75.69;101950.25;5590241;31;34597;-66
2022/01/25 09:38:58;;;;;;;45.38;18.17;;;;;;;-1.05;76.18;101955.16;5576412;31;34000;-65
2022/01/25 09:42:03;;;;;;;39.15;19.15;;;;;;;-1.11;76.76;101938.91;5590000;31;34527;-65
2022/01/25 09:45:07;;;;;;;37.60;18.48;;;;;;;-0.31;74.52;101941.06;5589999;31;33963;-65
2022/01/25 09:48:11;;;;;;;41.75;18.77;;;;;;;-0.55;74.25;101935.06;5576397;31;34616;-65
2022/01/25 09:51:16;;;;;;;49.83;19.62;;;;;;;-0.44;74.36;101935.47;5589896;31;33960;-65
2022/01/25 09:54:19;;;;;;;51.47;18.05;;;;;;;-0.11;73.40;101928.09;5589797;31;34695;-65
2022/01/25 09:57:23;;;;;;;43.55;19.37;;;;;;;0.06;72.26;101921.31;5589923;31;34665;-65
2022/01/25 10:00:29;;;;;;;45.45;19.83;;;;;;;-0.10;74.19;101927.16;5589755;31;35439;-65
2022/01/25 10:03:37;;;;;;;48.33;18.90;;;;;;;0.13;73.09;101915.78;5589776;31;34596;-65
2022/01/25 10:06:40;;;;;;;44.60;19.23;;;;;;;0.46;71.59;101913.50;5589684;31;33956;-67
2022/01/25 10:09:43;;;;;;;41.05;18.58;;;;;;;0.77;71.90;101913.88;5589546;31;34646;-67
2022/01/25 10:12:45;;;;;;;49.53;18.87;;;;;;;0.90;71.01;101908.94;5589786;31;34115;-66
2022/01/25 10:15:58;;;;;;;50.70;19.60;;;;;;;0.82;70.65;101895.41;5575952;31;34022;-66
2022/01/25 10:19:07;;;;;;;43.03;19.73;;;;;;;1.54;69.48;101891.13;5576370;31;34026;-66
2022/01/25 10:22:14;;;;;;;39.15;18.00;;;;;;;1.84;67.54;101894.00;5589478;31;34601;-67
2022/01/25 10:25:31;;;;;;;36.08;16.27;;;;;;;2.14;68.54;101887.28;5589840;31;34387;-66
2022/01/25 10:28:34;;;;;;;34.50;15.25;;;;;;;1.92;69.63;101876.19;5583976;31;178153;-68
2022/01/25 10:31:40;;;;;;;31.52;15.35;;;;;;;1.25;73.12;101873.38;5579631;31;34140;-66
2022/01/25 10:34:48;;;;;;;35.08;16.17;;;;;;;1.52;72.96;101876.44;5592144;31;34403;-66
2022/01/25 10:37:50;;;;;;;33.30;15.82;;;;;;;1.89;72.55;101886.78;5590439;31;33410;-66
2022/01/25 10:41:06;;;;;;;36.10;15.95;;;;;;;2.08;71.79;101866.63;5589618;31;34450;-66
2022/01/25 10:44:08;;;;;;;35.80;16.02;;;;;;;1.95;73.23;101880.41;5591101;31;35403;-67
2022/01/25 10:47:12;;;;;;;35.65;16.90;;;;;;;1.55;75.55;101866.66;5589414;31;34149;-67
2022/01/25 10:50:18;;;;;;;32.65;15.18;;;;;;;1.99;74.41;101863.63;5589368;31;34036;-67
2022/01/25 10:53:21;;;;;;;39.95;16.40;;;;;;;1.64;75.62;101868.84;5589264;31;33934;-67
2022/01/25 10:56:24;;;;;;;33.22;15.73;;;;;;;1.41;76.99;101861.25;5589544;31;34138;-67
2022/01/25 10:59:32;;;;;;;36.13;16.30;;;;;;;1.44;76.55;101857.66;5589419;31;33958;-67
2022/01/25 11:02:34;;;;;;;35.22;16.65;;;;;;;0.96;78.58;101851.19;5589195;31;35481;-67
2022/01/25 11:05:45;;;;;;;30.10;14.68;;;;;;;1.03;77.71;101846.53;5589387;31;33995;-66
2022/01/25 11:08:57;;;;;;;30.05;14.63;;;;;;;0.92;76.20;101847.00;5589228;31;34656;-67
2022/01/25 11:12:03;;;;;;;29.25;13.65;;;;;;;0.96;75.98;101842.50;5589346;31;34649;-66
2022/01/25 11:15:06;;;;;;;41.40;15.98;;;;;;;1.13;75.29;101845.16;5589124;31;35274;-66
2022/01/25 11:18:10;;;;;;;29.83;14.63;;;;;;;1.06;76.70;101846.41;5589283;31;34047;-67
2022/01/25 11:21:13;;;;;;;26.58;13.40;;;;;;;1.44;76.08;101839.34;5588987;31;34463;-66
2022/01/25 11:24:18;;;;;;;34.88;15.00;;;;;;;1.16;77.07;101831.97;5575231;31;34604;-66
2022/01/25 11:27:23;;;;;;;35.72;15.57;;;;;;;1.34;77.30;101843.31;5588871;31;33946;-67
2022/01/25 11:30:28;;;;;;;33.03;16.17;;;;;;;1.42;76.96;101830.72;5588509;31;34637;-66
2022/01/25 11:33:32;;;;;;;34.55;15.77;;;;;;;1.81;75.41;101825.31;5588886;31;34216;-67
2022/01/25 11:36:57;;;;;;;33.15;15.57;;;;;;;1.42;76.71;101820.25;5588860;31;34028;-66
2022/01/25 11:39:59;;;;;;;30.00;15.30;;;;;;;1.87;74.82;101818.00;5588858;31;34371;-66
2022/01/25 11:43:09;;;;;;;35.83;15.68;;;;;;;1.58;76.37;101821.22;5588266;31;33963;-66
2022/01/25 11:46:12;;;;;;;34.63;16.12;;;;;;;1.44;76.93;101824.50;5588430;31;34158;-66
2022/01/25 11:49:20;;;;;;;34.47;16.35;;;;;;;1.95;75.77;101823.69;5588712;31;34673;-66
2022/01/25 11:52:26;;;;;;;33.75;16.50;;;;;;;1.74;76.79;101817.75;5589706;31;34022;-66
2022/01/25 11:55:31;;;;;;;30.02;15.30;;;;;;;1.73;77.53;101815.22;5591124;31;34006;-66
2022/01/25 11:58:40;;;;;;;33.83;16.55;;;;;;;2.02;77.22;101811.16;5590803;31;35214;-66
2022/01/25 12:01:50;;;;;;;36.75;16.10;;;;;;;2.07;77.48;101801.28;5577280;31;33842;-66
2022/01/25 12:05:03;;;;;;;31.33;14.43;;;;;;;1.89;78.72;101791.75;5590760;31;34955;-66
2022/01/25 12:08:16;;;;;;;33.28;14.98;;;;;;;2.28;78.61;101788.84;5590882;31;34013;-66
2022/01/25 12:11:51;;;;;;;30.23;15.25;;;;;;;2.59;77.65;101789.75;5591318;31;34230;-66
2022/01/25 12:14:56;;;;;;;28.25;14.02;;;;;;;2.39;78.48;101789.13;5591177;31;34364;-66
2022/01/25 12:17:58;;;;;;;35.47;15.48;;;;;;;2.36;79.80;101777.06;5590932;31;33861;-67
2022/01/25 12:21:01;;;;;;;27.42;13.60;;;;;;;3.03;77.56;101771.59;5590726;31;33972;-66
2022/01/25 12:24:38;;;;;;;27.55;12.77;;;;;;;2.66;79.67;101774.56;5590712;31;34282;-66
2022/01/25 12:28:07;;;;;;;22.87;12.35;;;;;;;2.61;80.16;101771.34;5590599;31;34088;-67
2022/01/25 12:31:17;;;;;;;22.75;11.10;;;;;;;2.89;79.37;101763.66;5576914;31;34027;-67
2022/01/25 12:34:24;;;;;;;31.40;13.93;;;;;;;2.26;82.08;101757.50;5590917;31;33882;-66
2022/01/25 12:37:42;;;;;;;26.40;13.07;;;;;;;2.03;83.19;101755.25;5590504;31;34850;-67
2022/01/25 12:41:09;;;;;;;27.77;13.20;;;;;;;2.55;80.70;101756.81;5577197;31;34005;-67
2022/01/25 12:44:20;;;;;;;28.23;13.27;;;;;;;2.34;81.43;101754.47;5577343;31;33685;-67
2022/01/25 12:47:23;;;;;;;27.25;13.32;;;;;;;2.14;82.91;101755.53;5590301;31;34465;-66
2022/01/25 12:50:28;;;;;;;25.60;14.10;;;;;;;1.65;85.46;101752.81;5590381;31;34046;-67
2022/01/25 12:53:34;;;;;;;32.30;15.48;;;;;;;1.87;83.79;101749.97;5590088;31;33958;-66
2022/01/25 12:56:49;;;;;;;30.80;14.25;;;;;;;1.93;83.65;101738.34;5590721;31;34626;-67
2022/01/25 12:59:51;;;;;;;32.00;15.05;;;;;;;1.80;85.21;101737.25;5590558;31;33925;-66
2022/01/25 13:03:09;;;;;;;34.13;14.48;;;;;;;1.75;85.62;101730.50;5590024;31;34042;-66
2022/01/25 13:06:22;;;;;;;29.23;14.30;;;;;;;1.69;86.36;101720.34;5590529;31;34658;-67
2022/01/25 13:09:33;;;;;;;27.42;13.27;;;;;;;1.48;88.29;101718.84;5590103;31;34877;-67
2022/01/25 13:12:47;;;;;;;;;;;;;;;1.26;89.41;101711.19;5576786;31;35219;-66
2022/01/25 13:15:56;;;;;;;29.48;14.43;;;;;;;1.16;90.45;101717.78;5590444;31;34700;-66
2022/01/25 13:18:59;;;;;;;31.75;15.40;;;;;;;1.08;91.58;101711.25;5576561;31;33969;-67
2022/01/25 13:22:09;;;;;;;33.15;15.82;;;;;;;1.08;91.33;101708.66;5590222;31;33962;-66
2022/01/25 13:28:53;;;;;;;31.80;16.65;;;;;;;0.99;92.26;101703.88;5590164;31;34060;-66
2022/01/25 13:32:16;;;;;;;32.97;16.15;;;;;;;0.95;92.53;101692.72;5576967;31;34020;-66
2022/01/25 13:35:27;;;;;;;31.00;16.58;;;;;;;1.05;92.66;101693.97;5590117;31;34606;-66
2022/01/25 13:38:32;;;;;;;31.75;15.70;;;;;;;1.37;91.30;101686.28;5590542;31;33868;-66
2022/01/25 13:41:41;;;;;;;27.85;14.05;;;;;;;1.46;90.72;101686.66;5590009;31;34142;-67
2022/01/25 13:48:09;;;;;;;30.60;15.45;;;;;;;1.48;92.53;101682.22;5590222;31;34693;-66
2022/01/25 13:51:18;;;;;;;32.05;15.68;;;;;;;1.71;91.68;101671.41;5590164;31;34015;-66
2022/01/25 13:54:23;;;;;;;27.67;14.43;;;;;;;1.78;90.75;101677.19;5589956;31;33969;-66
2022/01/25 13:57:28;;;;;;;31.23;15.05;;;;;;;1.63;92.18;101670.97;5589917;31;35504;-66
2022/01/25 14:00:32;;;;;;;30.77;15.75;;;;;;;1.95;90.48;101665.81;5589992;31;34163;-66
2022/01/25 14:04:04;;;;;;;29.45;14.93;;;;;;;1.72;91.18;101662.66;5590207;31;34571;-66
2022/01/25 14:07:07;;;;;;;32.25;15.80;;;;;;;1.74;90.83;101652.94;5576044;31;34577;-66
2022/01/25 14:10:21;;;;;;;34.47;16.67;;;;;;;1.95;89.36;101663.19;5589890;31;33918;-67
2022/01/25 14:23:34;;;;;;;33.67;16.83;;;;;;;1.66;90.16;101659.50;5589664;31;33972;-66
2022/01/25 14:26:36;;;;;;;38.17;17.20;;;;;;;1.59;90.78;101656.38;5576302;31;33972;-67
2022/01/25 14:29:40;;;;;;;30.15;16.27;;;;;;;1.49;91.39;101667.37;5589405;31;34141;-66
2022/01/25 14:32:43;;;;;;;38.03;16.23;;;;;;;1.50;91.57;101656.00;5589827;31;33940;-67
2022/01/25 14:36:05;;;;;;;39.25;18.00;;;;;;;1.52;91.34;101662.84;5589021;31;35131;-66
2022/01/25 14:39:10;;;;;;;33.80;17.20;;;;;;;1.44;91.23;101657.16;5589404;31;33970;-66
2022/01/25 14:42:13;;;;;;;34.60;16.60;;;;;;;1.33;91.66;101658.62;5589318;31;34629;-66
2022/01/25 14:45:20;;;;;;;37.03;18.73;;;;;;;1.01;93.75;101668.06;5589409;31;34947;-66
2022/01/25 14:48:23;;;;;;;37.78;18.25;;;;;;;1.11;93.55;101669.31;5589391;31;34652;-67
2022/01/25 14:51:35;;;;;;;33.60;16.00;;;;;;;1.16;93.30;101665.53;5576007;31;34051;-66
2022/01/25 14:54:41;;;;;;;38.05;18.23;;;;;;;1.22;92.90;101675.69;5589361;31;33992;-66
2022/01/25 14:58:02;;;;;;;37.40;18.90;;;;;;;1.21;92.85;101687.06;5589298;31;34109;-66
2022/01/25 15:01:05;;;;;;;37.00;18.42;;;;;;;1.09;93.78;101684.22;5589291;31;34016;-66
2022/01/25 15:04:08;;;;;;;44.22;19.23;;;;;;;1.11;93.74;101679.75;5588887;31;34591;-66
2022/01/25 15:07:14;;;;;;;39.10;19.65;;;;;;;1.04;94.10;101679.22;5589055;31;35242;-67
2022/01/25 15:10:20;;;;;;;39.95;20.58;;;;;;;0.92;94.90;101682.41;5589060;31;34082;-66
2022/01/25 15:13:25;;;;;;;46.28;21.52;;;;;;;0.83;95.75;101677.63;5589409;31;33932;-66
2022/01/25 15:16:32;;;;;;;43.75;21.60;;;;;;;0.85;95.92;101687.09;5575922;31;34278;-66
2022/01/25 15:19:35;;;;;;;52.38;23.60;;;;;;;0.65;97.21;101666.31;5589015;31;35287;-66
2022/01/25 15:22:40;;;;;;;52.47;24.25;;;;;;;0.60;97.68;101677.87;5588778;31;35284;-66
2022/01/25 15:25:43;;;;;;;48.63;23.87;;;;;;;0.42;99.28;101677.00;5574634;31;35177;-66
2022/01/25 15:28:54;;;;;;;49.95;21.90;;;;;;;0.37;99.68;101677.22;5587841;31;34021;-66
2022/01/25 15:31:58;;;;;;;51.42;24.83;;;;;;;0.32;100.00;101670.50;5574738;31;34135;-66
2022/01/25 15:35:02;;;;;;;54.90;25.50;;;;;;;0.17;100.00;101664.22;5588306;31;34069;-66
2022/01/25 15:38:05;;;;;;;54.38;25.60;;;;;;;0.11;100.00;101672.34;5588716;31;34593;-66
2022/01/25 15:41:09;;;;;;;55.03;23.52;;;;;;;0.06;100.00;101676.91;5588413;31;34309;-66
2022/01/25 15:44:14;;;;;;;54.50;27.30;;;;;;;0.09;100.00;101679.41;5587887;31;34408;-66
2022/01/25 15:47:19;;;;;;;54.13;25.90;;;;;;;0.12;100.00;101676.66;5588146;31;34181;-66
2022/01/25 15:50:25;;;;;;;57.17;26.67;;;;;;;0.15;100.00;101683.47;5587887;31;34036;-66
2022/01/25 15:53:28;;;;;;;57.85;27.25;;;;;;;0.07;100.00;101675.16;5588481;31;34099;-66
2022/01/25 15:56:31;;;;;;;51.40;27.35;;;;;;;0.08;100.00;101676.84;5588053;31;34107;-66
2022/01/25 15:59:35;;;;;;;57.78;27.25;;;;;;;0.18;100.00;101672.91;5587857;31;34583;-66